Time;durP1;ratioP1;P1;durP2;ratioP2;P2;SDS_P1;SDS_P2;PMS_P1;PMS_P2;Temp;Humidity;BMP_temperature;BMP_pressure;BME280_temperature;BME280_humidity;BME280_pressure;Samples;Min_cycle;Max_cycle;Signal;HPM_P1;HPM_P2
2022/04/23 00:01:31;;;;;;;24.57;2.60;;;;;;;20.13;48.70;98704.78;7308939;19;159643;-41
2022/04/23 00:03:56;;;;;;;11.63;1.63;;;;;;;20.07;47.99;98706.19;7308861;19;154397;-45
2022/04/23 00:06:22;;;;;;;26.50;2.90;;;;;;;20.08;47.67;98699.19;7309274;19;142292;-33
2022/04/23 00:08:47;;;;;;;26.93;2.97;;;;;;;20.09;47.46;98698.22;7309709;19;153287;-35
2022/04/23 00:11:12;;;;;;;33.00;3.23;;;;;;;20.08;47.77;98701.81;7308053;19;158586;-37
2022/04/23 00:13:38;;;;;;;44.83;4.53;;;;;;;20.14;47.51;98702.00;7307940;19;155987;-34
2022/04/23 00:16:04;;;;;;;19.90;2.10;;;;;;;20.02;47.23;98689.34;7308761;19;129204;-40
2022/04/23 00:18:30;;;;;;;25.65;2.80;;;;;;;20.10;47.44;98699.84;7312562;19;130164;-37
2022/04/23 00:20:55;;;;;;;12.57;1.85;;;;;;;20.14;47.70;98698.56;7306583;19;158281;-38
2022/04/23 00:23:20;;;;;;;22.95;2.53;;;;;;;20.16;47.13;98705.28;7311722;19;130104;-36
2022/04/23 00:25:50;;;;;;;29.13;2.85;;;;;;;20.35;47.39;98709.50;7310964;19;129465;-36
2022/04/23 00:28:17;;;;;;;23.65;2.72;;;;;;;20.37;48.40;98710.19;7310961;19;130303;-35
2022/04/23 00:30:42;;;;;;;26.80;3.07;;;;;;;20.33;48.83;98707.06;7309293;19;130323;-33
2022/04/23 00:33:09;;;;;;;24.70;2.65;;;;;;;20.36;49.98;98705.94;7309466;19;154480;-35
2022/04/23 00:35:36;;;;;;;32.67;3.45;;;;;;;20.39;49.90;98703.84;7308673;19;128969;-34
2022/04/23 00:38:01;;;;;;;;;;;;;;;20.45;50.62;98702.41;7311188;19;129011;-36
2022/04/23 00:40:27;;;;;;;28.80;2.90;;;;;;;20.42;49.93;98703.53;7309940;19;129664;-36
2022/04/23 00:42:55;;;;;;;24.30;2.70;;;;;;;20.43;50.41;98699.94;7310287;19;128852;-39
2022/04/23 00:45:25;;;;;;;27.52;3.08;;;;;;;20.45;51.34;98698.00;7309832;19;129136;-35
2022/04/23 00:47:50;;;;;;;28.60;3.20;;;;;;;20.42;50.94;98700.94;7312413;19;132263;-41
2022/04/23 00:50:20;;;;;;;24.35;2.75;;;;;;;20.43;51.24;98696.50;7315241;19;158386;-37
2022/04/23 00:52:50;;;;;;;26.15;2.75;;;;;;;20.43;51.47;98704.34;7317225;19;129662;-41
2022/04/23 00:55:16;;;;;;;31.30;3.25;;;;;;;20.40;49.74;98695.03;7316141;19;130101;-38
2022/04/23 00:57:41;;;;;;;15.23;2.03;;;;;;;20.10;48.33;98697.22;7317066;19;130729;-39
2022/04/23 01:00:08;;;;;;;22.20;2.38;;;;;;;20.07;48.43;98692.31;7317447;19;130436;-35
2022/04/23 01:02:35;;;;;;;25.20;2.50;;;;;;;20.11;48.56;98697.09;7317313;19;128955;-40
2022/04/23 01:05:01;;;;;;;19.17;2.13;;;;;;;20.11;47.93;98704.09;7317620;19;128931;-38
2022/04/23 01:07:26;;;;;;;31.83;3.17;;;;;;;20.12;47.66;98700.50;7315458;19;129103;-41
2022/04/23 01:09:52;;;;;;;25.98;3.17;;;;;;;20.10;47.60;98698.06;7314636;19;150207;-37
2022/04/23 01:12:19;;;;;;;32.55;3.25;;;;;;;20.11;47.49;98698.88;7312885;19;129375;-39
2022/04/23 01:15:02;;;;;;;26.00;3.00;;;;;;;20.03;46.89;98685.78;7314709;19;129269;-39
2022/04/23 01:17:27;;;;;;;27.55;2.75;;;;;;;20.17;47.02;98703.50;7315487;19;129491;-38
2022/04/23 01:19:52;;;;;;;24.38;2.45;;;;;;;20.18;47.42;98699.94;7316183;19;136266;-41
2022/04/23 01:22:18;;;;;;;44.92;4.22;;;;;;;20.17;46.91;98693.06;7312157;19;153070;-40
2022/04/23 01:24:43;;;;;;;10.25;1.58;;;;;;;20.37;47.82;98694.53;7315152;19;129382;-41
2022/04/23 01:27:10;;;;;;;28.08;2.63;;;;;;;20.33;49.29;98693.19;7315245;19;132561;-41
2022/04/23 01:29:37;;;;;;;26.33;3.03;;;;;;;20.35;49.64;98691.25;7316012;19;130378;-41
2022/04/23 01:32:05;;;;;;;;;;;;;;;20.43;49.89;98691.28;7315062;19;129010;-36
2022/04/23 01:34:30;;;;;;;;;;;;;;;20.44;50.66;98687.72;7315622;19;129026;-42
2022/04/23 01:36:56;;;;;;;23.23;2.63;;;;;;;20.33;49.90;98672.28;7313383;19;129543;-41
2022/04/23 01:39:21;;;;;;;22.38;2.45;;;;;;;20.44;50.15;98685.91;7314350;19;157869;-41
2022/04/23 01:41:47;;;;;;;23.20;2.75;;;;;;;20.46;50.29;98688.41;7310672;19;155821;-38
2022/04/23 01:44:13;;;;;;;22.87;2.53;;;;;;;20.46;51.00;98683.16;7314495;19;129190;-39
2022/04/23 01:46:38;;;;;;;22.77;2.40;;;;;;;20.45;50.45;98686.72;7313442;19;130986;-42
2022/04/23 01:49:03;;;;;;;24.80;2.50;;;;;;;20.44;51.77;98687.72;7313882;19;160138;-41
2022/04/23 01:51:28;;;;;;;21.83;2.40;;;;;;;20.44;51.07;98693.75;7313448;19;129194;-39
2022/04/23 01:53:54;;;;;;;26.47;2.80;;;;;;;20.16;48.45;98686.22;7313624;19;153938;-37
2022/04/23 01:56:19;;;;;;;16.23;2.03;;;;;;;20.12;48.39;98688.28;7311890;19;155743;-38
2022/04/23 01:58:44;;;;;;;26.40;2.80;;;;;;;20.09;47.86;98682.56;7313727;19;158999;-39
2022/04/23 02:01:09;;;;;;;27.27;2.88;;;;;;;20.13;47.75;98681.28;7313687;19;136982;-39
2022/04/23 02:03:35;;;;;;;28.80;2.92;;;;;;;20.01;47.94;98666.84;7313792;19;154221;-39
2022/04/23 02:06:01;;;;;;;25.48;2.38;;;;;;;20.08;47.25;98681.72;7315121;19;130502;-39
2022/04/23 02:08:26;;;;;;;21.75;2.50;;;;;;;20.12;47.67;98687.47;7315349;19;129513;-41
2022/04/23 02:10:52;;;;;;;31.52;3.10;;;;;;;20.15;47.21;98689.78;7314177;19;129573;-40
2022/04/23 02:13:17;;;;;;;33.05;3.35;;;;;;;20.16;46.94;98689.63;7314258;19;130025;-41
2022/04/23 02:15:42;;;;;;;19.90;2.00;;;;;;;20.17;47.38;98693.06;7311790;19;158985;-39
2022/04/23 02:18:08;;;;;;;21.77;2.22;;;;;;;20.28;47.42;98685.00;7315317;19;130667;-39
2022/04/23 02:20:33;;;;;;;26.42;2.60;;;;;;;20.36;48.40;98690.28;7314056;19;129112;-41
2022/04/23 02:22:59;;;;;;;25.80;2.75;;;;;;;20.33;49.08;98693.19;7314847;19;134913;-38
2022/04/23 02:25:24;;;;;;;42.20;4.38;;;;;;;20.37;49.68;98694.53;7311384;19;157919;-38
2022/04/23 02:27:50;;;;;;;31.60;3.38;;;;;;;20.30;49.90;98683.88;7314338;19;130021;-40
2022/04/23 02:30:17;;;;;;;27.05;2.88;;;;;;;20.32;50.38;98686.34;7314836;19;129284;-40
2022/04/23 02:32:44;;;;;;;13.93;1.92;;;;;;;20.43;50.67;98704.34;7315442;19;130484;-41
2022/04/23 02:35:10;;;;;;;19.27;2.17;;;;;;;20.43;50.80;98691.28;7314444;19;130354;-42
2022/04/23 02:37:36;;;;;;;;;;;;;;;20.49;51.95;98699.31;7314722;19;129300;-40
2022/04/23 02:40:06;;;;;;;18.23;2.10;;;;;;;20.44;51.28;98691.13;7313203;19;129962;-38
2022/04/23 02:42:33;;;;;;;26.10;2.85;;;;;;;20.43;51.11;98680.84;7313960;19;129827;-37
2022/04/23 02:45:01;;;;;;;;;;;;;;;20.47;51.38;98684.78;7314098;19;130259;-39
2022/04/23 02:47:40;;;;;;;25.13;2.50;;;;;;;20.36;49.37;98677.22;7314002;19;130323;-42
2022/04/23 02:50:06;;;;;;;13.10;1.60;;;;;;;20.10;48.03;98692.00;7313856;19;128991;-39
2022/04/23 02:52:31;;;;;;;20.13;2.47;;;;;;;20.11;47.97;98688.44;7314189;19;129833;-41
2022/04/23 02:54:56;;;;;;;25.17;2.60;;;;;;;20.12;47.48;98690.91;7310948;19;158140;-41
2022/04/23 02:57:21;;;;;;;23.63;2.23;;;;;;;20.15;47.99;98689.78;7309064;19;158739;-43
2022/04/23 02:59:47;;;;;;;25.37;2.70;;;;;;;20.15;47.93;98695.00;7312407;19;155839;-39
2022/04/23 03:02:12;;;;;;;20.33;2.23;;;;;;;20.18;47.28;98692.13;7309578;19;154256;-42
2022/04/23 03:04:37;;;;;;;20.38;2.03;;;;;;;20.17;47.10;98695.69;7313403;19;130138;-42
2022/04/23 03:07:03;;;;;;;16.38;1.80;;;;;;;20.20;47.03;98703.19;7312411;19;130988;-39
2022/04/23 03:09:29;;;;;;;32.67;3.17;;;;;;;20.12;47.33;98687.47;7311860;19;129097;-40
2022/04/23 03:11:54;;;;;;;26.48;2.53;;;;;;;20.21;47.24;98704.84;7310334;19;129050;-40
2022/04/23 03:14:20;;;;;;;22.98;2.28;;;;;;;20.40;47.86;98696.81;7311388;19;158348;-38
2022/04/23 03:16:45;;;;;;;15.50;1.90;;;;;;;20.35;49.01;98705.13;7310381;19;130896;-41
2022/04/23 03:19:11;;;;;;;20.77;2.13;;;;;;;20.26;49.12;98681.72;7313257;19;129390;-40
2022/04/23 03:21:36;;;;;;;27.70;2.70;;;;;;;20.38;49.17;98704.81;7309275;19;154960;-38
2022/04/23 03:24:01;;;;;;;27.90;2.80;;;;;;;20.42;50.76;98702.72;7310592;19;141195;-38
2022/04/23 03:26:26;;;;;;;21.00;2.37;;;;;;;20.43;50.39;98704.34;7311115;19;144619;-40
2022/04/23 03:28:52;;;;;;;23.10;2.53;;;;;;;20.42;50.48;98700.09;7311716;19;154973;-39
2022/04/23 03:31:17;;;;;;;28.15;2.75;;;;;;;20.41;49.27;98690.66;7311157;19;129106;-40
2022/04/23 03:33:43;;;;;;;37.95;3.42;;;;;;;20.36;50.68;98692.91;7308446;19;143447;-37
2022/04/23 03:36:08;;;;;;;18.45;1.98;;;;;;;20.36;50.80;98690.28;7308051;19;159233;-40
2022/04/23 03:38:33;;;;;;;27.95;3.15;;;;;;;20.46;50.92;98711.88;7309729;19;156305;-38
2022/04/23 03:40:58;;;;;;;18.50;2.03;;;;;;;20.41;50.74;98707.09;7308493;19;154130;-42
2022/04/23 03:43:26;;;;;;;42.60;4.18;;;;;;;20.35;49.45;98705.13;7310502;19;143931;-40
2022/04/23 03:45:53;;;;;;;23.25;2.58;;;;;;;20.13;48.44;98710.00;7311880;19;130541;-39
2022/04/23 03:48:18;;;;;;;23.58;2.40;;;;;;;20.12;48.35;98709.16;7312264;19;154535;-41
2022/04/23 03:50:44;;;;;;;23.77;2.33;;;;;;;20.10;47.62;98712.88;7311674;19;128990;-40
2022/04/23 03:53:09;;;;;;;26.88;2.55;;;;;;;20.12;48.27;98716.16;7311054;19;130164;-39
2022/04/23 03:55:35;;;;;;;29.67;3.10;;;;;;;20.13;47.49;98720.44;7310717;19;130820;-37
2022/04/23 03:58:01;;;;;;;13.73;1.60;;;;;;;20.11;47.74;98720.59;7312055;19;129435;-40
2022/04/23 04:00:28;;;;;;;31.40;2.97;;;;;;;20.15;47.16;98713.28;7311437;19;128937;-41
2022/04/23 04:02:54;;;;;;;;;;;;;;;20.14;46.85;98720.28;7312709;19;130525;-37
2022/04/23 04:05:20;;;;;;;40.13;3.85;;;;;;;20.15;47.49;98723.72;7309253;19;129484;-40
2022/04/23 04:07:47;;;;;;;41.17;3.73;;;;;;;20.16;46.91;98712.31;7311483;19;129064;-41
2022/04/23 04:10:15;;;;;;;24.65;2.40;;;;;;;20.32;47.57;98718.47;7310481;19;128825;-38
2022/04/23 04:12:40;;;;;;;23.35;2.42;;;;;;;20.36;48.21;98724.22;7312033;19;129183;-39
2022/04/23 04:15:07;;;;;;;35.65;3.50;;;;;;;20.33;49.16;98725.31;7308830;19;158499;-40
2022/04/23 04:17:33;;;;;;;;;;;;;;;20.38;50.42;98723.09;7309700;19;129598;-41
2022/04/23 04:19:59;;;;;;;19.58;1.98;;;;;;;20.37;49.26;98729.28;7311998;19;129005;-40
2022/04/23 04:22:24;;;;;;;32.53;3.20;;;;;;;20.38;50.54;98732.69;7310344;19;130657;-38
2022/04/23 04:24:49;;;;;;;22.05;2.35;;;;;;;20.41;50.93;98728.00;7317593;19;128896;-37
2022/04/23 04:27:15;;;;;;;32.15;3.38;;;;;;;20.42;51.12;98723.59;7316661;19;147145;-39
2022/04/23 04:29:40;;;;;;;29.00;2.88;;;;;;;20.46;50.48;98727.56;7317398;19;141872;-41
2022/04/23 04:32:07;;;;;;;25.13;2.45;;;;;;;20.44;50.69;98721.66;7314672;19;159604;-48
2022/04/23 04:34:33;;;;;;;;;;;;;;;20.47;50.95;98726.56;7319187;19;130553;-40
2022/04/23 04:37:07;;;;;;;30.55;3.05;;;;;;;20.46;51.92;98724.94;7316282;19;130009;-41
2022/04/23 04:39:33;;;;;;;17.65;1.98;;;;;;;20.42;51.60;98728.81;7315397;19;129329;-35
2022/04/23 04:41:58;;;;;;;22.20;2.40;;;;;;;20.18;48.44;98736.50;7315578;19;129723;-37
2022/04/23 04:44:24;;;;;;;23.85;2.58;;;;;;;20.12;48.40;98737.03;7314994;19;161011;-39
2022/04/23 04:46:49;;;;;;;24.02;2.40;;;;;;;20.10;47.60;98733.75;7316658;19;154827;-39
2022/04/23 04:49:14;;;;;;;16.33;2.10;;;;;;;20.06;47.92;98733.25;7316164;19;154984;-40
2022/04/23 04:51:40;;;;;;;30.23;3.17;;;;;;;20.11;47.55;98740.63;7313298;19;158755;-40
2022/04/23 04:54:06;;;;;;;24.23;2.50;;;;;;;20.11;47.50;98740.63;7315078;19;159301;-38
2022/04/23 04:56:32;;;;;;;24.77;2.47;;;;;;;20.04;47.78;98724.75;7315753;19;129831;-41
2022/04/23 04:58:57;;;;;;;25.47;2.37;;;;;;;20.15;47.39;98734.97;7318026;19;129179;-36
2022/04/23 05:01:22;;;;;;;27.95;2.53;;;;;;;20.20;47.01;98734.53;7315610;19;129516;-33
2022/04/23 05:03:47;;;;;;;21.77;2.42;;;;;;;20.16;47.55;98739.22;7314418;19;158318;-35
2022/04/23 05:06:13;;;;;;;35.88;3.65;;;;;;;20.21;47.27;98736.19;7315889;19;139587;-36
2022/04/23 05:08:38;;;;;;;22.13;2.25;;;;;;;20.43;47.67;98743.50;7317181;19;129769;-40
2022/04/23 05:11:04;;;;;;;27.63;2.70;;;;;;;20.38;47.98;98737.91;7315895;19;130639;-34
2022/04/23 05:13:30;;;;;;;25.07;2.60;;;;;;;20.38;48.98;98740.53;7315279;19;129575;-38
2022/04/23 05:15:56;;;;;;;26.35;2.78;;;;;;;20.37;49.66;98741.50;7315355;19;128947;-36
2022/04/23 05:18:22;;;;;;;28.00;2.97;;;;;;;20.38;50.09;98741.34;7318232;19;129053;-30
2022/04/23 05:20:47;;;;;;;26.13;2.60;;;;;;;20.41;50.60;98743.66;7316477;19;130744;-39
2022/04/23 05:23:12;;;;;;;38.90;3.65;;;;;;;20.43;50.76;98743.50;7314563;19;158458;-32
2022/04/23 05:25:38;;;;;;;17.58;2.05;;;;;;;20.42;51.03;98740.09;7317162;19;129156;-33
2022/04/23 05:28:03;;;;;;;20.20;2.10;;;;;;;20.45;50.62;98749.41;7317954;19;130638;-34
2022/04/23 05:30:29;;;;;;;27.95;3.03;;;;;;;20.45;50.19;98749.41;7316188;19;129508;-38
2022/04/23 05:32:54;;;;;;;38.28;3.67;;;;;;;20.45;51.58;98754.63;7313932;19;158424;-35
2022/04/23 05:35:19;;;;;;;45.78;4.45;;;;;;;20.45;51.54;98739.78;7313920;19;154554;-36
2022/04/23 05:37:45;;;;;;;25.73;2.70;;;;;;;20.48;51.58;98754.31;7312798;19;129061;-37
2022/04/23 05:40:11;;;;;;;20.63;2.00;;;;;;;20.12;48.02;98753.53;7314513;19;158374;-32
2022/04/23 05:42:36;;;;;;;22.67;2.20;;;;;;;20.08;48.40;98752.16;7316474;19;130504;-34
2022/04/23 05:45:01;;;;;;;27.35;2.58;;;;;;;20.11;47.68;98756.28;7313806;19;155510;-38
2022/04/23 05:47:26;;;;;;;28.42;2.58;;;;;;;20.10;48.10;98750.25;7314498;19;129105;-37
2022/04/23 05:49:52;;;;;;;31.90;3.40;;;;;;;20.11;47.47;98753.69;7313690;19;159270;-35
2022/04/23 05:52:17;;;;;;;28.17;2.83;;;;;;;20.11;47.17;98753.69;7310853;19;158488;-34
2022/04/23 05:54:42;;;;;;;14.02;1.75;;;;;;;20.15;47.56;98755.84;7315132;19;129054;-34
2022/04/23 05:57:08;;;;;;;24.03;2.30;;;;;;;20.16;46.81;98754.88;7311660;19;153926;-38
2022/04/23 05:59:33;;;;;;;35.17;3.08;;;;;;;20.15;47.21;98758.47;7312168;19;137398;-35
2022/04/23 06:01:59;;;;;;;44.87;3.73;;;;;;;20.05;46.71;98738.59;7307019;19;158714;-40
2022/04/23 06:04:26;;;;;;;30.50;3.17;;;;;;;20.41;47.55;98764.53;7313206;19;128969;-37
2022/04/23 06:06:52;;;;;;;52.65;4.45;;;;;;;20.34;49.30;98752.25;7312899;19;131642;-35
2022/04/23 06:09:17;;;;;;;25.60;2.72;;;;;;;20.26;49.41;98744.38;7311516;19;129233;-35
2022/04/23 06:11:42;;;;;;;32.15;3.10;;;;;;;20.38;50.02;98764.03;7311065;19;150168;-39
2022/04/23 06:14:08;;;;;;;36.33;3.00;;;;;;;20.43;49.76;98756.56;7314181;19;129934;-38
2022/04/23 06:16:34;;;;;;;23.00;2.35;;;;;;;20.41;50.00;98761.94;7311667;19;129943;-34
2022/04/23 06:19:00;;;;;;;30.70;3.13;;;;;;;20.45;50.29;98759.84;7314504;19;129044;-31
2022/04/23 06:21:25;;;;;;;44.25;4.45;;;;;;;20.43;50.35;98762.59;7311855;19;129177;-31
2022/04/23 06:23:50;;;;;;;33.90;3.33;;;;;;;20.37;51.11;98755.38;7312185;19;155234;-33
2022/04/23 06:26:15;;;;;;;26.80;2.75;;;;;;;20.48;50.25;98765.56;7308231;19;154598;-35
2022/04/23 06:28:41;;;;;;;28.27;2.85;;;;;;;20.49;50.69;98771.63;7313938;19;130132;-39
2022/04/23 06:31:06;;;;;;;26.17;2.73;;;;;;;20.45;51.45;98765.06;7311590;19;159056;-35
2022/04/23 06:33:32;;;;;;;31.75;3.13;;;;;;;20.29;49.25;98770.16;7314128;19;129754;-38
2022/04/23 06:35:57;;;;;;;30.85;3.15;;;;;;;20.09;48.59;98768.66;7311901;19;130627;-38
2022/04/23 06:38:22;;;;;;;28.48;2.72;;;;;;;20.02;48.19;98759.78;7312122;19;158328;-33
2022/04/23 06:40:47;;;;;;;29.85;2.92;;;;;;;20.03;47.93;98767.44;7310991;19;158609;-40
2022/04/23 06:43:13;;;;;;;35.10;3.35;;;;;;;20.11;47.59;98782.38;7312968;19;129668;-34
2022/04/23 06:45:38;;;;;;;27.08;2.80;;;;;;;20.16;47.98;98775.75;7311315;19;128977;-40
2022/04/23 06:48:04;;;;;;;29.00;2.92;;;;;;;20.12;47.43;98773.56;7311508;19;158491;-39
2022/04/23 06:50:31;;;;;;;26.63;2.67;;;;;;;20.12;47.18;98773.56;7312816;19;131127;-40
2022/04/23 06:52:57;;;;;;;56.10;5.03;;;;;;;20.15;47.25;98778.50;7312457;19;130469;-31
2022/04/23 06:55:22;;;;;;;49.50;4.43;;;;;;;20.05;46.94;98752.47;7312727;19;130637;-35
2022/04/23 06:57:49;;;;;;;31.00;2.95;;;;;;;20.24;47.80;98767.19;7310276;19;157575;-39
2022/04/23 07:00:14;;;;;;;35.38;3.25;;;;;;;20.41;47.44;98767.16;7313068;19;130566;-34
2022/04/23 07:02:40;;;;;;;34.28;3.22;;;;;;;20.35;49.36;98780.00;7313339;19;129126;-39
2022/04/23 07:05:05;;;;;;;22.70;2.30;;;;;;;20.36;49.91;98771.22;7311438;19;154950;-35
2022/04/23 07:07:33;;;;;;;19.80;2.30;;;;;;;20.38;49.69;98767.47;7312645;19;130119;-33
2022/04/23 07:09:58;;;;;;;25.63;2.35;;;;;;;20.41;49.96;98758.53;7313248;19;131112;-37
2022/04/23 07:12:23;;;;;;;24.52;2.65;;;;;;;20.43;50.41;98760.00;7308925;19;154909;-33
2022/04/23 07:14:49;;;;;;;27.77;2.92;;;;;;;20.44;50.23;98763.44;7310636;19;154280;-38
2022/04/23 07:17:14;;;;;;;29.00;3.08;;;;;;;20.42;50.67;98755.75;7310889;19;130014;-42
2022/04/23 07:19:40;;;;;;;34.70;3.28;;;;;;;20.36;50.21;98752.94;7310169;19;160592;-37
2022/04/23 07:22:07;;;;;;;31.17;3.17;;;;;;;20.45;50.58;98765.06;7309087;19;129008;-33
2022/04/23 07:24:32;;;;;;;24.13;2.42;;;;;;;20.43;50.78;98764.38;7312217;19;129657;-34
2022/04/23 07:26:59;;;;;;;29.40;2.63;;;;;;;20.43;50.22;98759.16;7309596;19;155177;-30
2022/04/23 07:29:24;;;;;;;28.55;2.88;;;;;;;20.45;50.29;98759.84;7312109;19;129125;-34
2022/04/23 07:31:50;;;;;;;34.80;3.20;;;;;;;20.17;48.92;98766.16;7308853;19;129260;-34
2022/04/23 07:39:44;;;;;;;20.55;2.35;;;;;;;20.12;47.91;98763.13;7312530;19;130089;-38
2022/04/23 07:42:10;;;;;;;28.48;2.72;;;;;;;20.01;47.63;98734.69;7308210;19;129283;-33
2022/04/23 07:44:36;;;;;;;46.33;3.97;;;;;;;20.10;48.03;98759.84;7310067;19;129284;-35
2022/04/23 07:47:04;;;;;;;21.90;2.07;;;;;;;20.08;47.18;98751.38;7310000;19;129620;-35
2022/04/23 07:49:29;;;;;;;22.55;2.20;;;;;;;20.15;47.18;98749.81;7312064;19;130338;-36
2022/04/23 07:51:55;;;;;;;27.13;2.58;;;;;;;20.16;47.55;98751.47;7308370;19;147819;-34
2022/04/23 07:54:20;;;;;;;28.52;2.60;;;;;;;20.18;47.10;98744.31;7305904;19;129301;-33
2022/04/23 07:56:45;;;;;;;30.98;3.03;;;;;;;20.41;47.69;98750.69;7308309;19;158425;-35
2022/04/23 07:59:11;;;;;;;29.98;2.90;;;;;;;20.36;48.41;98748.50;7309093;19;129468;-34
2022/04/23 08:01:36;;;;;;;25.23;2.78;;;;;;;20.40;49.31;98767.31;7307146;19;129105;-32
2022/04/23 08:04:03;;;;;;;29.20;3.00;;;;;;;20.41;50.18;98766.34;7307737;19;129507;-35
2022/04/23 08:06:30;;;;;;;23.98;2.58;;;;;;;20.42;50.22;98750.53;7309839;19;130773;-40
2022/04/23 08:08:55;;;;;;;34.85;3.33;;;;;;;20.43;50.39;98753.94;7308439;19;130861;-40
2022/04/23 08:11:22;;;;;;;34.47;3.35;;;;;;;20.45;50.11;98744.16;7306508;19;129074;-38
2022/04/23 08:13:48;;;;;;;23.80;2.80;;;;;;;20.38;51.00;98743.13;7310778;19;128954;-40
2022/04/23 08:16:13;;;;;;;32.23;3.13;;;;;;;20.45;50.66;98749.41;7308789;19;130495;-38
2022/04/23 08:18:39;;;;;;;34.40;3.47;;;;;;;20.47;51.32;98757.91;7308659;19;157577;-38
2022/04/23 08:21:04;;;;;;;22.85;2.30;;;;;;;20.51;49.64;98754.03;7307536;19;144715;-38
2022/04/23 08:23:33;;;;;;;30.85;3.25;;;;;;;20.50;49.45;98747.16;7308220;19;153972;-37
2022/04/23 08:26:00;;;;;;;32.47;2.97;;;;;;;20.44;49.73;98773.88;7309188;19;130322;-40
2022/04/23 08:31:09;;;;;;;22.70;2.17;;;;;;;20.11;48.30;98753.69;7310220;19;128903;-40
2022/04/23 08:36:19;;;;;;;39.17;3.85;;;;;;;20.10;47.48;98749.41;7309251;19;129210;-38
2022/04/23 08:38:44;;;;;;;39.03;3.85;;;;;;;20.09;47.63;98738.16;7307185;19;159315;-38
2022/04/23 08:41:11;;;;;;;67.50;5.73;;;;;;;20.04;47.54;98726.53;7304947;19;153568;-41
2022/04/23 08:43:36;;;;;;;29.80;2.80;;;;;;;20.11;47.32;98738.84;7310244;19;129463;-39
2022/04/23 08:46:03;;;;;;;26.63;2.50;;;;;;;20.15;47.76;98747.19;7306527;19;158245;-36
2022/04/23 08:48:36;;;;;;;20.40;2.17;;;;;;;20.08;46.92;98725.28;7308437;19;130631;-39
2022/04/23 08:51:03;;;;;;;24.10;2.17;;;;;;;20.16;47.52;98733.19;7309981;19;128971;-40
2022/04/23 08:53:32;;;;;;;27.33;2.65;;;;;;;20.41;47.44;98743.66;7307859;19;129086;-39
2022/04/23 08:55:57;;;;;;;25.80;2.50;;;;;;;20.34;49.18;98726.97;7308761;19;130731;-40
2022/04/23 08:58:23;;;;;;;27.55;2.83;;;;;;;20.35;48.42;98715.56;7306666;19;129491;-40
2022/04/23 09:00:49;;;;;;;30.75;3.38;;;;;;;20.38;49.89;98732.69;7308509;19;130677;-40
2022/04/23 09:03:15;;;;;;;29.80;2.93;;;;;;;20.42;49.52;98728.81;7305422;19;129242;-38
2022/04/23 09:05:43;;;;;;;42.15;3.92;;;;;;;20.39;50.24;98724.75;7305640;19;130073;-40
2022/04/23 09:08:09;;;;;;;23.38;2.20;;;;;;;20.40;50.46;98725.53;7310447;19;130434;-40
2022/04/23 09:10:54;;;;;;;34.45;4.07;;;;;;;20.40;50.78;98728.16;7314362;19;129082;-37
2022/04/23 09:13:31;;;;;;;44.85;4.60;;;;;;;20.38;50.37;98722.25;7315916;19;130655;-38
2022/04/23 09:24:14;;;;;;;32.72;3.95;;;;;;;20.37;48.83;98720.63;7315495;19;130311;-35
2022/04/23 09:26:40;;;;;;;50.28;5.60;;;;;;;20.28;47.92;98716.34;7310585;19;147179;-39
2022/04/23 09:29:15;;;;;;;25.47;3.23;;;;;;;20.41;49.12;98735.03;7314854;19;130330;-38
2022/04/23 09:31:41;;;;;;;40.08;4.60;;;;;;;20.38;49.10;98709.19;7311455;19;130000;-37
2022/04/23 09:34:17;;;;;;;24.42;3.50;;;;;;;20.11;46.61;98704.09;7314973;19;128950;-38
2022/04/23 09:36:57;;;;;;;18.13;2.92;;;;;;;19.95;46.09;98690.94;7313972;19;130634;-39
2022/04/23 09:39:34;;;;;;;46.05;5.10;;;;;;;20.01;46.38;98701.59;7311651;19;130448;-40
2022/04/23 09:42:19;;;;;;;33.97;4.30;;;;;;;20.05;46.00;98715.13;7313001;19;129353;-40
2022/04/23 09:44:45;;;;;;;42.03;4.63;;;;;;;20.24;46.84;98704.56;7314900;19;129187;-39
2022/04/23 09:47:27;;;;;;;28.08;3.60;;;;;;;20.24;47.86;98704.56;7315321;19;130573;-37
2022/04/23 09:49:55;;;;;;;39.90;4.25;;;;;;;20.27;48.90;98704.25;7314397;19;130479;-38
2022/04/23 09:52:27;;;;;;;59.63;6.32;;;;;;;20.32;50.08;98695.00;7312496;19;129543;-39
2022/04/23 09:54:54;;;;;;;28.00;3.50;;;;;;;20.37;49.53;98699.75;7313949;19;129243;-39
2022/04/23 09:57:20;;;;;;;36.70;4.40;;;;;;;20.38;49.38;98691.75;7313862;19;129634;-41
2022/04/23 09:59:46;;;;;;;;;;;;;;;20.40;50.24;98697.66;7314884;19;129452;-39
2022/04/23 10:02:19;;;;;;;32.60;4.10;;;;;;;20.41;49.46;98693.25;7312731;19;129942;-39
2022/04/23 10:04:45;;;;;;;51.22;5.10;;;;;;;20.38;49.43;98696.97;7312074;19;129664;-38
2022/04/23 10:07:11;;;;;;;32.20;4.05;;;;;;;20.37;49.55;98689.31;7312579;19;129637;-42
2022/04/23 10:09:41;;;;;;;34.70;3.92;;;;;;;20.38;50.38;98683.09;7314014;19;129676;-39
2022/04/23 10:12:08;;;;;;;27.88;3.25;;;;;;;20.38;50.11;98691.75;7311352;19;130710;-40
2022/04/23 10:14:41;;;;;;;35.17;4.50;;;;;;;20.22;48.43;98698.66;7313685;19;129617;-40
2022/04/23 10:17:09;;;;;;;24.10;3.25;;;;;;;20.03;47.74;98691.00;7312640;19;130137;-35
2022/04/23 10:19:35;;;;;;;28.20;3.55;;;;;;;19.99;47.45;98692.25;7313229;19;130596;-41
2022/04/23 10:22:03;;;;;;;24.03;2.93;;;;;;;20.00;47.00;98686.88;7311579;19;128766;-40
2022/04/23 10:24:47;;;;;;;21.25;2.58;;;;;;;20.03;47.47;98685.78;7313121;19;129190;-36
2022/04/23 10:27:15;;;;;;;27.23;3.22;;;;;;;20.05;47.17;98679.41;7312486;19;131450;-39
2022/04/23 10:29:41;;;;;;;38.00;3.95;;;;;;;20.03;46.63;98673.53;7313178;19;130386;-40
2022/04/23 10:32:16;;;;;;;35.03;3.67;;;;;;;20.08;46.56;98680.94;7312750;19;129371;-39
2022/04/23 10:34:42;;;;;;;25.35;3.30;;;;;;;20.11;47.09;98672.78;7314229;19;129066;-39
2022/04/23 10:37:25;;;;;;;26.55;3.08;;;;;;;20.35;47.41;98667.75;7313138;19;130353;-39
2022/04/23 10:39:53;;;;;;;15.70;2.42;;;;;;;20.30;47.54;98667.38;7314570;19;130367;-39
2022/04/23 10:42:23;;;;;;;47.60;4.90;;;;;;;20.26;49.08;98660.84;7309167;19;154636;-41
2022/04/23 10:44:50;;;;;;;27.73;3.22;;;;;;;20.31;49.74;98666.44;7311937;19;129255;-40
2022/04/23 10:47:39;;;;;;;28.52;3.28;;;;;;;20.35;50.32;98665.13;7314006;19;131695;-40
2022/04/23 10:50:23;;;;;;;22.15;2.80;;;;;;;20.35;49.99;98660.75;7313323;19;130450;-38
2022/04/23 10:52:50;;;;;;;44.60;4.22;;;;;;;20.38;49.46;98654.38;7311853;19;130050;-40
2022/04/23 10:55:16;;;;;;;29.45;3.75;;;;;;;20.34;50.25;98653.91;7312657;19;130172;-41
2022/04/23 10:57:51;;;;;;;32.80;3.50;;;;;;;20.36;51.22;98658.97;7312233;19;129774;-40
2022/04/23 11:00:19;;;;;;;38.10;4.10;;;;;;;20.35;50.76;98657.31;7312564;19;130290;-40
2022/04/23 11:02:53;;;;;;;44.72;4.90;;;;;;;20.35;50.66;98646.88;7313281;19;129154;-39
2022/04/23 11:13:53;;;;;;;34.22;4.03;;;;;;;20.01;47.68;98638.97;7313141;19;129302;-41
2022/04/23 11:16:19;;;;;;;28.40;3.13;;;;;;;20.02;47.40;98637.16;7312003;19;129678;-38
2022/04/23 11:18:46;;;;;;;34.30;3.65;;;;;;;20.05;47.09;98636.84;7308864;19;130027;-40
2022/04/23 11:21:14;;;;;;;35.47;3.67;;;;;;;19.94;47.28;98622.28;7310359;19;130522;-40
2022/04/23 11:23:42;;;;;;;12.55;2.25;;;;;;;20.04;47.66;98636.06;7312593;19;128924;-38
2022/04/23 11:26:11;;;;;;;13.32;1.80;;;;;;;20.08;46.93;98637.38;7312852;19;128786;-38
2022/04/23 11:28:37;;;;;;;38.92;3.65;;;;;;;20.07;47.32;98629.69;7310232;19;130747;-41
2022/04/23 11:31:18;;;;;;;8.93;1.70;;;;;;;20.11;46.83;98631.03;7310080;19;129259;-40
2022/04/23 11:33:57;;;;;;;51.67;5.18;;;;;;;20.33;47.50;98622.69;7310782;19;128940;-40
2022/04/23 11:36:30;;;;;;;25.00;3.13;;;;;;;20.28;48.35;98627.59;7309242;19;129090;-41
2022/04/23 11:38:57;;;;;;;45.45;4.30;;;;;;;20.28;48.75;98622.38;7311587;19;130650;-40
2022/04/23 11:41:25;;;;;;;;;;;;;;;20.36;50.55;98620.59;7310424;19;132035;-38
2022/04/23 11:43:51;;;;;;;;;;;;;;;20.39;50.61;98625.53;7311648;19;128893;-40
2022/04/23 11:46:16;;;;;;;39.73;4.13;;;;;;;20.40;49.30;98621.13;7308665;19;130307;-37